sensor_id;sensor_type;location;lat;lon;timestamp;P1;durP1;ratioP1;P2;durP2;ratioP2
31770;SDS011;18343;50.152;8.182;2022-08-21T00:00:04;7.22;;;3.90;;
31770;SDS011;18343;50.152;8.182;2022-08-21T00:05:03;9.57;;;3.30;;
31770;SDS011;18343;50.152;8.182;2022-08-21T00:07:30;6.53;;;3.50;;
31770;SDS011;18343;50.152;8.182;2022-08-21T00:09:57;9.20;;;3.15;;
31770;SDS011;18343;50.152;8.182;2022-08-21T00:12:28;8.63;;;3.58;;
31770;SDS011;18343;50.152;8.182;2022-08-21T00:14:56;9.73;;;3.72;;
31770;SDS011;18343;50.152;8.182;2022-08-21T00:17:22;7.43;;;3.67;;
31770;SDS011;18343;50.152;8.182;2022-08-21T00:19:49;6.70;;;3.95;;
31770;SDS011;18343;50.152;8.182;2022-08-21T00:22:17;6.20;;;3.55;;
31770;SDS011;18343;50.152;8.182;2022-08-21T00:24:45;8.05;;;3.63;;
31770;SDS011;18343;50.152;8.182;2022-08-21T00:27:11;6.28;;;3.72;;
31770;SDS011;18343;50.152;8.182;2022-08-21T00:29:38;6.10;;;3.70;;
31770;SDS011;18343;50.152;8.182;2022-08-21T00:32:04;6.55;;;3.70;;
31770;SDS011;18343;50.152;8.182;2022-08-21T00:34:31;6.30;;;3.55;;
31770;SDS011;18343;50.152;8.182;2022-08-21T00:36:58;5.97;;;3.38;;
31770;SDS011;18343;50.152;8.182;2022-08-21T00:39:25;5.60;;;3.10;;
31770;SDS011;18343;50.152;8.182;2022-08-21T00:41:52;14.70;;;4.20;;
31770;SDS011;18343;50.152;8.182;2022-08-21T00:44:19;7.90;;;3.15;;
31770;SDS011;18343;50.152;8.182;2022-08-21T00:46:45;6.50;;;3.53;;
31770;SDS011;18343;50.152;8.182;2022-08-21T00:49:12;9.27;;;3.20;;
31770;SDS011;18343;50.152;8.182;2022-08-21T00:51:41;7.43;;;3.80;;
31770;SDS011;18343;50.152;8.182;2022-08-21T00:54:13;7.45;;;3.38;;
31770;SDS011;18343;50.152;8.182;2022-08-21T00:56:43;6.25;;;3.40;;
31770;SDS011;18343;50.152;8.182;2022-08-21T00:59:10;10.20;;;3.63;;
31770;SDS011;18343;50.152;8.182;2022-08-21T01:01:36;7.82;;;3.47;;
31770;SDS011;18343;50.152;8.182;2022-08-21T01:04:03;5.43;;;3.00;;
31770;SDS011;18343;50.152;8.182;2022-08-21T01:06:30;7.57;;;3.13;;
31770;SDS011;18343;50.152;8.182;2022-08-21T01:08:57;10.18;;;3.00;;
31770;SDS011;18343;50.152;8.182;2022-08-21T01:11:24;7.43;;;3.80;;
31770;SDS011;18343;50.152;8.182;2022-08-21T01:13:51;6.28;;;3.42;;
31770;SDS011;18343;50.152;8.182;2022-08-21T01:16:20;6.97;;;3.47;;
31770;SDS011;18343;50.152;8.182;2022-08-21T01:18:48;7.22;;;2.97;;
31770;SDS011;18343;50.152;8.182;2022-08-21T01:21:17;5.72;;;3.00;;
31770;SDS011;18343;50.152;8.182;2022-08-21T01:23:47;7.07;;;3.80;;
31770;SDS011;18343;50.152;8.182;2022-08-21T01:26:18;8.13;;;3.08;;
31770;SDS011;18343;50.152;8.182;2022-08-21T01:28:51;6.72;;;3.17;;
31770;SDS011;18343;50.152;8.182;2022-08-21T01:31:23;8.38;;;3.25;;
31770;SDS011;18343;50.152;8.182;2022-08-21T01:33:53;8.52;;;3.20;;
31770;SDS011;18343;50.152;8.182;2022-08-21T01:36:22;8.13;;;3.50;;
31770;SDS011;18343;50.152;8.182;2022-08-21T01:38:51;9.52;;;4.03;;
31770;SDS011;18343;50.152;8.182;2022-08-21T01:41:20;8.00;;;2.90;;
31770;SDS011;18343;50.152;8.182;2022-08-21T01:43:47;9.63;;;3.00;;
31770;SDS011;18343;50.152;8.182;2022-08-21T01:46:13;7.50;;;3.25;;
31770;SDS011;18343;50.152;8.182;2022-08-21T01:48:42;5.53;;;3.22;;
31770;SDS011;18343;50.152;8.182;2022-08-21T01:51:09;6.80;;;3.42;;
31770;SDS011;18343;50.152;8.182;2022-08-21T01:53:37;6.93;;;3.10;;
31770;SDS011;18343;50.152;8.182;2022-08-21T01:56:05;7.30;;;3.08;;
31770;SDS011;18343;50.152;8.182;2022-08-21T01:58:35;7.00;;;3.10;;
31770;SDS011;18343;50.152;8.182;2022-08-21T02:01:02;6.00;;;3.03;;
31770;SDS011;18343;50.152;8.182;2022-08-21T02:03:29;8.50;;;3.63;;
31770;SDS011;18343;50.152;8.182;2022-08-21T02:05:56;7.38;;;3.17;;
31770;SDS011;18343;50.152;8.182;2022-08-21T02:08:23;9.52;;;3.25;;
31770;SDS011;18343;50.152;8.182;2022-08-21T02:10:53;5.30;;;3.17;;
31770;SDS011;18343;50.152;8.182;2022-08-21T02:13:20;7.43;;;3.33;;
31770;SDS011;18343;50.152;8.182;2022-08-21T02:15:46;6.05;;;3.63;;
31770;SDS011;18343;50.152;8.182;2022-08-21T02:18:13;9.23;;;3.15;;
31770;SDS011;18343;50.152;8.182;2022-08-21T02:20:42;6.55;;;3.15;;
31770;SDS011;18343;50.152;8.182;2022-08-21T02:23:12;7.60;;;3.33;;
31770;SDS011;18343;50.152;8.182;2022-08-21T02:25:39;9.50;;;3.47;;
31770;SDS011;18343;50.152;8.182;2022-08-21T02:28:08;7.82;;;3.65;;
31770;SDS011;18343;50.152;8.182;2022-08-21T02:30:41;7.10;;;3.10;;
31770;SDS011;18343;50.152;8.182;2022-08-21T02:33:11;6.10;;;3.30;;
31770;SDS011;18343;50.152;8.182;2022-08-21T02:35:40;6.85;;;2.95;;
31770;SDS011;18343;50.152;8.182;2022-08-21T02:38:09;8.50;;;3.35;;
31770;SDS011;18343;50.152;8.182;2022-08-21T02:40:39;7.28;;;3.67;;
31770;SDS011;18343;50.152;8.182;2022-08-21T02:43:10;7.00;;;3.78;;
31770;SDS011;18343;50.152;8.182;2022-08-21T02:45:38;7.22;;;2.97;;
31770;SDS011;18343;50.152;8.182;2022-08-21T02:48:06;8.32;;;3.35;;
31770;SDS011;18343;50.152;8.182;2022-08-21T02:50:36;9.20;;;3.67;;
31770;SDS011;18343;50.152;8.182;2022-08-21T02:53:06;7.25;;;3.38;;
31770;SDS011;18343;50.152;8.182;2022-08-21T02:55:36;7.05;;;3.00;;
31770;SDS011;18343;50.152;8.182;2022-08-21T02:58:06;8.55;;;3.22;;
31770;SDS011;18343;50.152;8.182;2022-08-21T03:00:34;10.73;;;3.78;;
31770;SDS011;18343;50.152;8.182;2022-08-21T03:03:02;14.02;;;3.25;;
31770;SDS011;18343;50.152;8.182;2022-08-21T03:05:31;13.05;;;3.97;;
31770;SDS011;18343;50.152;8.182;2022-08-21T03:07:59;10.88;;;3.83;;
31770;SDS011;18343;50.152;8.182;2022-08-21T03:10:27;10.15;;;3.67;;
31770;SDS011;18343;50.152;8.182;2022-08-21T03:12:56;10.20;;;3.90;;
31770;SDS011;18343;50.152;8.182;2022-08-21T03:15:23;11.85;;;3.28;;
31770;SDS011;18343;50.152;8.182;2022-08-21T03:17:50;7.38;;;3.55;;
31770;SDS011;18343;50.152;8.182;2022-08-21T03:20:21;10.90;;;3.50;;
31770;SDS011;18343;50.152;8.182;2022-08-21T03:22:51;12.48;;;3.42;;
31770;SDS011;18343;50.152;8.182;2022-08-21T03:25:19;8.85;;;3.58;;
31770;SDS011;18343;50.152;8.182;2022-08-21T03:27:47;8.95;;;3.65;;
31770;SDS011;18343;50.152;8.182;2022-08-21T03:30:14;7.97;;;3.45;;
31770;SDS011;18343;50.152;8.182;2022-08-21T03:32:42;10.38;;;4.30;;
31770;SDS011;18343;50.152;8.182;2022-08-21T03:35:10;9.98;;;3.17;;
31770;SDS011;18343;50.152;8.182;2022-08-21T03:37:36;8.30;;;3.10;;
31770;SDS011;18343;50.152;8.182;2022-08-21T03:40:03;8.00;;;3.97;;
31770;SDS011;18343;50.152;8.182;2022-08-21T03:42:34;9.15;;;3.40;;
31770;SDS011;18343;50.152;8.182;2022-08-21T03:45:01;9.73;;;3.55;;
31770;SDS011;18343;50.152;8.182;2022-08-21T03:47:28;8.32;;;3.60;;
31770;SDS011;18343;50.152;8.182;2022-08-21T03:49:55;7.75;;;2.85;;
31770;SDS011;18343;50.152;8.182;2022-08-21T03:52:22;9.05;;;3.45;;
31770;SDS011;18343;50.152;8.182;2022-08-21T03:54:49;5.50;;;2.90;;
31770;SDS011;18343;50.152;8.182;2022-08-21T03:57:15;5.60;;;3.20;;
31770;SDS011;18343;50.152;8.182;2022-08-21T03:59:43;9.60;;;3.55;;
31770;SDS011;18343;50.152;8.182;2022-08-21T04:02:10;6.93;;;3.40;;
31770;SDS011;18343;50.152;8.182;2022-08-21T04:04:38;10.30;;;2.97;;
31770;SDS011;18343;50.152;8.182;2022-08-21T04:07:05;11.63;;;3.40;;
31770;SDS011;18343;50.152;8.182;2022-08-21T04:09:32;6.82;;;3.08;;
31770;SDS011;18343;50.152;8.182;2022-08-21T04:11:59;7.53;;;2.90;;
31770;SDS011;18343;50.152;8.182;2022-08-21T04:14:27;8.52;;;3.10;;
31770;SDS011;18343;50.152;8.182;2022-08-21T04:16:54;7.93;;;3.00;;
31770;SDS011;18343;50.152;8.182;2022-08-21T04:19:20;7.38;;;2.72;;
31770;SDS011;18343;50.152;8.182;2022-08-21T04:21:47;5.13;;;3.15;;
31770;SDS011;18343;50.152;8.182;2022-08-21T04:24:14;7.05;;;3.47;;
31770;SDS011;18343;50.152;8.182;2022-08-21T04:26:42;4.95;;;3.15;;
31770;SDS011;18343;50.152;8.182;2022-08-21T04:29:08;4.13;;;3.00;;
31770;SDS011;18343;50.152;8.182;2022-08-21T04:31:35;6.68;;;3.05;;
31770;SDS011;18343;50.152;8.182;2022-08-21T04:34:03;5.18;;;3.05;;
31770;SDS011;18343;50.152;8.182;2022-08-21T04:36:30;9.05;;;2.90;;
31770;SDS011;18343;50.152;8.182;2022-08-21T04:38:57;4.38;;;3.00;;
31770;SDS011;18343;50.152;8.182;2022-08-21T04:41:24;4.72;;;2.70;;
31770;SDS011;18343;50.152;8.182;2022-08-21T04:43:51;6.18;;;3.03;;
31770;SDS011;18343;50.152;8.182;2022-08-21T04:46:20;7.88;;;3.38;;
31770;SDS011;18343;50.152;8.182;2022-08-21T04:48:46;4.18;;;3.00;;
31770;SDS011;18343;50.152;8.182;2022-08-21T04:51:15;7.25;;;3.30;;
31770;SDS011;18343;50.152;8.182;2022-08-21T04:53:45;8.75;;;3.28;;
31770;SDS011;18343;50.152;8.182;2022-08-21T04:56:18;4.93;;;3.03;;
31770;SDS011;18343;50.152;8.182;2022-08-21T04:58:52;8.68;;;3.65;;
31770;SDS011;18343;50.152;8.182;2022-08-21T05:01:22;9.95;;;3.60;;
31770;SDS011;18343;50.152;8.182;2022-08-21T05:03:52;8.95;;;3.53;;
31770;SDS011;18343;50.152;8.182;2022-08-21T05:06:23;5.45;;;3.15;;
31770;SDS011;18343;50.152;8.182;2022-08-21T05:08:51;6.57;;;3.08;;
31770;SDS011;18343;50.152;8.182;2022-08-21T05:11:21;5.30;;;3.45;;
31770;SDS011;18343;50.152;8.182;2022-08-21T05:13:48;6.15;;;3.10;;
31770;SDS011;18343;50.152;8.182;2022-08-21T05:16:18;7.45;;;3.80;;
31770;SDS011;18343;50.152;8.182;2022-08-21T05:18:44;8.60;;;3.75;;
31770;SDS011;18343;50.152;8.182;2022-08-21T05:21:14;7.10;;;3.47;;
31770;SDS011;18343;50.152;8.182;2022-08-21T05:23:41;6.88;;;3.85;;
31770;SDS011;18343;50.152;8.182;2022-08-21T05:26:10;8.23;;;3.95;;
31770;SDS011;18343;50.152;8.182;2022-08-21T05:28:37;8.35;;;3.70;;
31770;SDS011;18343;50.152;8.182;2022-08-21T05:31:03;6.38;;;3.00;;
31770;SDS011;18343;50.152;8.182;2022-08-21T05:33:32;6.55;;;3.55;;
31770;SDS011;18343;50.152;8.182;2022-08-21T05:35:58;6.97;;;3.47;;
31770;SDS011;18343;50.152;8.182;2022-08-21T05:38:25;9.43;;;3.65;;
31770;SDS011;18343;50.152;8.182;2022-08-21T05:40:53;8.88;;;4.05;;
31770;SDS011;18343;50.152;8.182;2022-08-21T05:43:20;6.85;;;3.00;;
31770;SDS011;18343;50.152;8.182;2022-08-21T05:45:47;7.15;;;3.53;;
31770;SDS011;18343;50.152;8.182;2022-08-21T05:48:15;8.00;;;3.60;;
31770;SDS011;18343;50.152;8.182;2022-08-21T05:50:46;9.25;;;3.53;;
31770;SDS011;18343;50.152;8.182;2022-08-21T05:53:15;8.00;;;4.13;;
31770;SDS011;18343;50.152;8.182;2022-08-21T05:55:43;7.43;;;3.97;;
31770;SDS011;18343;50.152;8.182;2022-08-21T05:58:10;7.20;;;4.03;;
31770;SDS011;18343;50.152;8.182;2022-08-21T06:00:37;7.32;;;3.80;;
31770;SDS011;18343;50.152;8.182;2022-08-21T06:03:04;6.43;;;3.70;;
31770;SDS011;18343;50.152;8.182;2022-08-21T06:05:37;8.80;;;3.75;;
31770;SDS011;18343;50.152;8.182;2022-08-21T06:08:05;11.70;;;3.60;;
31770;SDS011;18343;50.152;8.182;2022-08-21T06:10:31;5.95;;;3.90;;
31770;SDS011;18343;50.152;8.182;2022-08-21T06:12:58;6.93;;;3.85;;
31770;SDS011;18343;50.152;8.182;2022-08-21T06:15:25;7.63;;;3.80;;
31770;SDS011;18343;50.152;8.182;2022-08-21T06:17:52;6.63;;;3.85;;
31770;SDS011;18343;50.152;8.182;2022-08-21T06:20:20;6.85;;;3.85;;
31770;SDS011;18343;50.152;8.182;2022-08-21T06:22:47;8.68;;;3.92;;
31770;SDS011;18343;50.152;8.182;2022-08-21T06:25:15;7.82;;;3.78;;
31770;SDS011;18343;50.152;8.182;2022-08-21T06:27:42;8.15;;;3.72;;
31770;SDS011;18343;50.152;8.182;2022-08-21T06:30:09;8.18;;;3.83;;
31770;SDS011;18343;50.152;8.182;2022-08-21T06:32:37;11.35;;;4.28;;
31770;SDS011;18343;50.152;8.182;2022-08-21T06:35:04;9.40;;;3.85;;
31770;SDS011;18343;50.152;8.182;2022-08-21T06:37:32;5.45;;;3.97;;
31770;SDS011;18343;50.152;8.182;2022-08-21T06:39:58;7.15;;;3.92;;
31770;SDS011;18343;50.152;8.182;2022-08-21T06:42:26;6.60;;;3.95;;
31770;SDS011;18343;50.152;8.182;2022-08-21T06:44:53;9.27;;;4.63;;
31770;SDS011;18343;50.152;8.182;2022-08-21T06:47:20;13.13;;;5.22;;
31770;SDS011;18343;50.152;8.182;2022-08-21T06:49:47;9.15;;;4.28;;
31770;SDS011;18343;50.152;8.182;2022-08-21T06:52:13;10.38;;;4.53;;
31770;SDS011;18343;50.152;8.182;2022-08-21T06:54:40;8.80;;;4.25;;
31770;SDS011;18343;50.152;8.182;2022-08-21T06:57:07;11.25;;;4.35;;
31770;SDS011;18343;50.152;8.182;2022-08-21T06:59:34;8.30;;;4.28;;
31770;SDS011;18343;50.152;8.182;2022-08-21T07:02:01;7.68;;;4.63;;
31770;SDS011;18343;50.152;8.182;2022-08-21T07:04:29;10.07;;;4.28;;
31770;SDS011;18343;50.152;8.182;2022-08-21T07:06:55;7.55;;;4.65;;
31770;SDS011;18343;50.152;8.182;2022-08-21T07:09:22;6.47;;;3.85;;
31770;SDS011;18343;50.152;8.182;2022-08-21T07:11:50;12.05;;;5.28;;
31770;SDS011;18343;50.152;8.182;2022-08-21T07:14:19;7.07;;;3.97;;
31770;SDS011;18343;50.152;8.182;2022-08-21T07:16:47;10.90;;;4.32;;
31770;SDS011;18343;50.152;8.182;2022-08-21T07:19:14;8.02;;;4.15;;
31770;SDS011;18343;50.152;8.182;2022-08-21T07:21:41;6.40;;;4.05;;
31770;SDS011;18343;50.152;8.182;2022-08-21T07:24:07;6.43;;;4.13;;
31770;SDS011;18343;50.152;8.182;2022-08-21T07:26:35;7.63;;;4.30;;
31770;SDS011;18343;50.152;8.182;2022-08-21T07:31:35;10.50;;;4.55;;
31770;SDS011;18343;50.152;8.182;2022-08-21T07:34:13;9.50;;;4.70;;
31770;SDS011;18343;50.152;8.182;2022-08-21T07:36:47;9.50;;;4.60;;
31770;SDS011;18343;50.152;8.182;2022-08-21T07:39:22;10.70;;;5.13;;
31770;SDS011;18343;50.152;8.182;2022-08-21T07:48:19;12.77;;;5.43;;
31770;SDS011;18343;50.152;8.182;2022-08-21T07:50:57;9.15;;;5.40;;
31770;SDS011;18343;50.152;8.182;2022-08-21T07:53:28;12.32;;;5.72;;
31770;SDS011;18343;50.152;8.182;2022-08-21T07:55:57;13.57;;;6.35;;
31770;SDS011;18343;50.152;8.182;2022-08-21T07:58:34;10.50;;;5.28;;
31770;SDS011;18343;50.152;8.182;2022-08-21T08:01:05;9.88;;;5.15;;
31770;SDS011;18343;50.152;8.182;2022-08-21T08:03:38;14.73;;;6.75;;
31770;SDS011;18343;50.152;8.182;2022-08-21T08:06:09;16.60;;;5.95;;
31770;SDS011;18343;50.152;8.182;2022-08-21T08:08:43;17.05;;;5.80;;
31770;SDS011;18343;50.152;8.182;2022-08-21T08:14:27;12.27;;;5.22;;
31770;SDS011;18343;50.152;8.182;2022-08-21T08:16:54;10.98;;;5.00;;
31770;SDS011;18343;50.152;8.182;2022-08-21T08:19:21;9.82;;;4.55;;
31770;SDS011;18343;50.152;8.182;2022-08-21T08:22:21;15.45;;;5.40;;
31770;SDS011;18343;50.152;8.182;2022-08-21T08:25:12;8.98;;;4.43;;
31770;SDS011;18343;50.152;8.182;2022-08-21T08:27:53;15.05;;;4.93;;
31770;SDS011;18343;50.152;8.182;2022-08-21T08:30:50;7.90;;;4.68;;
31770;SDS011;18343;50.152;8.182;2022-08-21T08:33:29;9.23;;;4.95;;
31770;SDS011;18343;50.152;8.182;2022-08-21T08:46:09;12.60;;;5.25;;
31770;SDS011;18343;50.152;8.182;2022-08-21T08:49:15;10.20;;;4.60;;
31770;SDS011;18343;50.152;8.182;2022-08-21T08:52:52;10.25;;;4.88;;
31770;SDS011;18343;50.152;8.182;2022-08-21T08:56:10;9.43;;;4.07;;
31770;SDS011;18343;50.152;8.182;2022-08-21T08:58:55;12.30;;;4.38;;
31770;SDS011;18343;50.152;8.182;2022-08-21T09:06:22;9.15;;;3.88;;
31770;SDS011;18343;50.152;8.182;2022-08-21T09:15:31;8.82;;;5.40;;
31770;SDS011;18343;50.152;8.182;2022-08-21T09:18:39;10.07;;;5.03;;
31770;SDS011;18343;50.152;8.182;2022-08-21T09:21:58;8.07;;;4.32;;
31770;SDS011;18343;50.152;8.182;2022-08-21T09:25:42;13.38;;;4.85;;
31770;SDS011;18343;50.152;8.182;2022-08-21T09:29:02;13.48;;;4.93;;
31770;SDS011;18343;50.152;8.182;2022-08-21T09:32:06;13.25;;;4.50;;
31770;SDS011;18343;50.152;8.182;2022-08-21T09:35:03;11.70;;;4.22;;
31770;SDS011;18343;50.152;8.182;2022-08-21T09:41:25;17.65;;;5.10;;
31770;SDS011;18343;50.152;8.182;2022-08-21T09:43:59;9.00;;;4.32;;
31770;SDS011;18343;50.152;8.182;2022-08-21T09:46:31;10.95;;;4.80;;
31770;SDS011;18343;50.152;8.182;2022-08-21T09:49:01;8.98;;;4.55;;
31770;SDS011;18343;50.152;8.182;2022-08-21T09:51:35;10.48;;;4.38;;
31770;SDS011;18343;50.152;8.182;2022-08-21T09:54:18;10.77;;;4.47;;
31770;SDS011;18343;50.152;8.182;2022-08-21T09:57:00;10.88;;;4.65;;
31770;SDS011;18343;50.152;8.182;2022-08-21T10:00:19;7.43;;;3.40;;
31770;SDS011;18343;50.152;8.182;2022-08-21T10:02:55;11.35;;;4.32;;
31770;SDS011;18343;50.152;8.182;2022-08-21T10:05:54;11.68;;;3.25;;
31770;SDS011;18343;50.152;8.182;2022-08-21T10:08:33;8.20;;;3.75;;
31770;SDS011;18343;50.152;8.182;2022-08-21T10:11:08;10.55;;;3.88;;
31770;SDS011;18343;50.152;8.182;2022-08-21T10:13:47;7.47;;;3.10;;
31770;SDS011;18343;50.152;8.182;2022-08-21T10:16:30;7.75;;;2.97;;
31770;SDS011;18343;50.152;8.182;2022-08-21T10:19:16;7.97;;;3.60;;
31770;SDS011;18343;50.152;8.182;2022-08-21T10:22:07;10.88;;;3.70;;
31770;SDS011;18343;50.152;8.182;2022-08-21T10:24:50;9.30;;;3.22;;
31770;SDS011;18343;50.152;8.182;2022-08-21T10:27:47;5.57;;;2.85;;
31770;SDS011;18343;50.152;8.182;2022-08-21T10:30:33;7.18;;;3.05;;
31770;SDS011;18343;50.152;8.182;2022-08-21T10:33:20;6.55;;;2.78;;
31770;SDS011;18343;50.152;8.182;2022-08-21T10:36:02;7.28;;;3.25;;
31770;SDS011;18343;50.152;8.182;2022-08-21T10:41:39;8.27;;;2.90;;
31770;SDS011;18343;50.152;8.182;2022-08-21T10:44:35;8.77;;;3.15;;
31770;SDS011;18343;50.152;8.182;2022-08-21T10:47:10;8.82;;;3.17;;
31770;SDS011;18343;50.152;8.182;2022-08-21T10:49:48;6.72;;;2.97;;
31770;SDS011;18343;50.152;8.182;2022-08-21T10:52:32;8.60;;;3.35;;
31770;SDS011;18343;50.152;8.182;2022-08-21T10:55:25;9.75;;;3.17;;
31770;SDS011;18343;50.152;8.182;2022-08-21T10:58:04;10.43;;;3.47;;
31770;SDS011;18343;50.152;8.182;2022-08-21T11:00:41;7.55;;;2.65;;
31770;SDS011;18343;50.152;8.182;2022-08-21T11:03:17;7.03;;;2.60;;
31770;SDS011;18343;50.152;8.182;2022-08-21T11:05:55;6.85;;;2.95;;
31770;SDS011;18343;50.152;8.182;2022-08-21T11:08:32;9.07;;;2.53;;
31770;SDS011;18343;50.152;8.182;2022-08-21T11:11:06;5.90;;;2.60;;
31770;SDS011;18343;50.152;8.182;2022-08-21T11:16:15;9.90;;;3.15;;
31770;SDS011;18343;50.152;8.182;2022-08-21T11:18:50;10.90;;;4.57;;
31770;SDS011;18343;50.152;8.182;2022-08-21T11:21:29;8.82;;;3.50;;
31770;SDS011;18343;50.152;8.182;2022-08-21T11:24:10;10.63;;;3.90;;
31770;SDS011;18343;50.152;8.182;2022-08-21T11:26:57;6.22;;;3.33;;
31770;SDS011;18343;50.152;8.182;2022-08-21T11:29:37;8.13;;;2.80;;
31770;SDS011;18343;50.152;8.182;2022-08-21T11:32:12;8.55;;;3.03;;
31770;SDS011;18343;50.152;8.182;2022-08-21T11:35:22;9.13;;;2.72;;
31770;SDS011;18343;50.152;8.182;2022-08-21T11:38:18;8.73;;;2.65;;
31770;SDS011;18343;50.152;8.182;2022-08-21T11:41:05;11.45;;;2.55;;
31770;SDS011;18343;50.152;8.182;2022-08-21T11:44:02;7.45;;;2.63;;
31770;SDS011;18343;50.152;8.182;2022-08-21T11:46:41;6.95;;;2.95;;
31770;SDS011;18343;50.152;8.182;2022-08-21T11:49:23;4.93;;;2.67;;
31770;SDS011;18343;50.152;8.182;2022-08-21T11:52:12;5.95;;;2.70;;
31770;SDS011;18343;50.152;8.182;2022-08-21T11:54:54;5.65;;;2.50;;
31770;SDS011;18343;50.152;8.182;2022-08-21T11:57:46;5.78;;;2.40;;
31770;SDS011;18343;50.152;8.182;2022-08-21T12:01:03;4.25;;;2.17;;
31770;SDS011;18343;50.152;8.182;2022-08-21T12:03:51;4.85;;;2.13;;
31770;SDS011;18343;50.152;8.182;2022-08-21T12:06:50;13.68;;;3.25;;
31770;SDS011;18343;50.152;8.182;2022-08-21T12:09:57;8.85;;;2.80;;
31770;SDS011;18343;50.152;8.182;2022-08-21T12:12:29;5.97;;;2.38;;
31770;SDS011;18343;50.152;8.182;2022-08-21T12:15:06;9.60;;;1.88;;
31770;SDS011;18343;50.152;8.182;2022-08-21T12:18:02;9.02;;;2.33;;
31770;SDS011;18343;50.152;8.182;2022-08-21T12:20:43;5.88;;;2.17;;
31770;SDS011;18343;50.152;8.182;2022-08-21T12:23:30;5.15;;;2.25;;
31770;SDS011;18343;50.152;8.182;2022-08-21T12:29:36;6.25;;;2.25;;
31770;SDS011;18343;50.152;8.182;2022-08-21T12:35:47;6.90;;;2.33;;
31770;SDS011;18343;50.152;8.182;2022-08-21T12:40:57;8.02;;;1.90;;
31770;SDS011;18343;50.152;8.182;2022-08-21T12:43:33;8.15;;;2.05;;
31770;SDS011;18343;50.152;8.182;2022-08-21T12:46:06;4.80;;;2.00;;
31770;SDS011;18343;50.152;8.182;2022-08-21T12:48:41;5.38;;;2.08;;
31770;SDS011;18343;50.152;8.182;2022-08-21T12:51:17;4.30;;;1.80;;
31770;SDS011;18343;50.152;8.182;2022-08-21T12:53:52;3.40;;;1.90;;
31770;SDS011;18343;50.152;8.182;2022-08-21T12:56:24;8.85;;;1.85;;
31770;SDS011;18343;50.152;8.182;2022-08-21T12:58:56;5.07;;;2.20;;
31770;SDS011;18343;50.152;8.182;2022-08-21T13:01:31;6.20;;;1.92;;
31770;SDS011;18343;50.152;8.182;2022-08-21T13:04:02;5.25;;;1.85;;
31770;SDS011;18343;50.152;8.182;2022-08-21T13:06:37;4.03;;;2.05;;
31770;SDS011;18343;50.152;8.182;2022-08-21T13:09:08;5.50;;;1.90;;
31770;SDS011;18343;50.152;8.182;2022-08-21T13:11:50;3.28;;;1.67;;
31770;SDS011;18343;50.152;8.182;2022-08-21T13:14:23;4.50;;;1.67;;
31770;SDS011;18343;50.152;8.182;2022-08-21T13:16:58;4.85;;;2.03;;
31770;SDS011;18343;50.152;8.182;2022-08-21T13:19:26;5.53;;;2.33;;
31770;SDS011;18343;50.152;8.182;2022-08-21T13:21:56;4.80;;;1.58;;
31770;SDS011;18343;50.152;8.182;2022-08-21T13:24:25;4.38;;;1.73;;
31770;SDS011;18343;50.152;8.182;2022-08-21T13:26:56;4.50;;;1.67;;
31770;SDS011;18343;50.152;8.182;2022-08-21T13:29:29;5.68;;;2.13;;
31770;SDS011;18343;50.152;8.182;2022-08-21T13:32:03;4.85;;;1.65;;
31770;SDS011;18343;50.152;8.182;2022-08-21T13:34:58;8.10;;;1.67;;
31770;SDS011;18343;50.152;8.182;2022-08-21T13:37:34;5.72;;;1.70;;
31770;SDS011;18343;50.152;8.182;2022-08-21T13:40:06;3.78;;;1.40;;
31770;SDS011;18343;50.152;8.182;2022-08-21T13:42:42;5.63;;;1.45;;
31770;SDS011;18343;50.152;8.182;2022-08-21T13:45:13;5.97;;;1.52;;
31770;SDS011;18343;50.152;8.182;2022-08-21T13:47:53;4.10;;;1.67;;
31770;SDS011;18343;50.152;8.182;2022-08-21T13:50:25;5.90;;;2.00;;
31770;SDS011;18343;50.152;8.182;2022-08-21T13:55:52;7.10;;;2.80;;
31770;SDS011;18343;50.152;8.182;2022-08-21T13:58:26;4.07;;;1.65;;
31770;SDS011;18343;50.152;8.182;2022-08-21T14:00:55;4.03;;;1.65;;
31770;SDS011;18343;50.152;8.182;2022-08-21T14:03:35;3.00;;;1.33;;
31770;SDS011;18343;50.152;8.182;2022-08-21T14:06:12;6.10;;;2.40;;
31770;SDS011;18343;50.152;8.182;2022-08-21T14:08:46;3.95;;;1.48;;
31770;SDS011;18343;50.152;8.182;2022-08-21T14:11:19;8.55;;;1.75;;
31770;SDS011;18343;50.152;8.182;2022-08-21T14:13:48;3.45;;;1.65;;
31770;SDS011;18343;50.152;8.182;2022-08-21T14:16:25;7.28;;;1.73;;
31770;SDS011;18343;50.152;8.182;2022-08-21T14:19:15;2.65;;;1.50;;
31770;SDS011;18343;50.152;8.182;2022-08-21T14:21:56;5.82;;;1.77;;
31770;SDS011;18343;50.152;8.182;2022-08-21T14:24:25;3.28;;;1.73;;
31770;SDS011;18343;50.152;8.182;2022-08-21T14:27:02;4.68;;;1.92;;
31770;SDS011;18343;50.152;8.182;2022-08-21T14:29:35;2.70;;;1.60;;
31770;SDS011;18343;50.152;8.182;2022-08-21T14:32:14;4.28;;;2.05;;
31770;SDS011;18343;50.152;8.182;2022-08-21T14:34:48;4.90;;;1.83;;
31770;SDS011;18343;50.152;8.182;2022-08-21T14:37:18;2.70;;;1.40;;
31770;SDS011;18343;50.152;8.182;2022-08-21T14:39:44;6.88;;;1.50;;
31770;SDS011;18343;50.152;8.182;2022-08-21T14:42:15;4.93;;;1.83;;
31770;SDS011;18343;50.152;8.182;2022-08-21T14:44:45;5.88;;;1.65;;
31770;SDS011;18343;50.152;8.182;2022-08-21T14:47:17;5.05;;;1.60;;
31770;SDS011;18343;50.152;8.182;2022-08-21T14:49:44;5.40;;;2.00;;
31770;SDS011;18343;50.152;8.182;2022-08-21T14:52:11;2.30;;;1.67;;
31770;SDS011;18343;50.152;8.182;2022-08-21T14:54:38;4.38;;;1.38;;
31770;SDS011;18343;50.152;8.182;2022-08-21T14:57:06;3.85;;;1.60;;
31770;SDS011;18343;50.152;8.182;2022-08-21T14:59:37;5.20;;;1.55;;
31770;SDS011;18343;50.152;8.182;2022-08-21T15:02:05;5.97;;;1.48;;
31770;SDS011;18343;50.152;8.182;2022-08-21T15:04:34;4.28;;;1.85;;
31770;SDS011;18343;50.152;8.182;2022-08-21T15:07:01;2.90;;;1.50;;
31770;SDS011;18343;50.152;8.182;2022-08-21T15:09:29;2.95;;;1.35;;
31770;SDS011;18343;50.152;8.182;2022-08-21T15:11:57;5.50;;;1.40;;
31770;SDS011;18343;50.152;8.182;2022-08-21T15:14:27;3.45;;;1.52;;
31770;SDS011;18343;50.152;8.182;2022-08-21T15:16:58;4.18;;;1.50;;
31770;SDS011;18343;50.152;8.182;2022-08-21T15:19:28;2.63;;;1.40;;
31770;SDS011;18343;50.152;8.182;2022-08-21T15:22:00;5.53;;;1.52;;
31770;SDS011;18343;50.152;8.182;2022-08-21T15:24:33;3.10;;;1.30;;
31770;SDS011;18343;50.152;8.182;2022-08-21T15:27:20;3.22;;;1.67;;
31770;SDS011;18343;50.152;8.182;2022-08-21T15:30:01;3.63;;;1.65;;
31770;SDS011;18343;50.152;8.182;2022-08-21T15:32:42;4.40;;;1.23;;
31770;SDS011;18343;50.152;8.182;2022-08-21T15:35:09;3.75;;;1.40;;
31770;SDS011;18343;50.152;8.182;2022-08-21T15:37:37;2.45;;;1.33;;
31770;SDS011;18343;50.152;8.182;2022-08-21T15:40:12;3.30;;;1.40;;
31770;SDS011;18343;50.152;8.182;2022-08-21T15:42:43;3.22;;;1.40;;
31770;SDS011;18343;50.152;8.182;2022-08-21T15:45:11;3.15;;;1.33;;
31770;SDS011;18343;50.152;8.182;2022-08-21T15:47:42;3.10;;;1.35;;
31770;SDS011;18343;50.152;8.182;2022-08-21T15:50:11;2.20;;;1.50;;
31770;SDS011;18343;50.152;8.182;2022-08-21T15:52:40;4.00;;;1.75;;
31770;SDS011;18343;50.152;8.182;2022-08-21T15:55:07;3.70;;;1.40;;
31770;SDS011;18343;50.152;8.182;2022-08-21T15:57:36;6.70;;;1.83;;
31770;SDS011;18343;50.152;8.182;2022-08-21T16:00:10;2.80;;;1.42;;
31770;SDS011;18343;50.152;8.182;2022-08-21T16:02:42;3.15;;;1.50;;
31770;SDS011;18343;50.152;8.182;2022-08-21T16:05:13;4.95;;;1.65;;
31770;SDS011;18343;50.152;8.182;2022-08-21T16:07:42;3.55;;;1.27;;
31770;SDS011;18343;50.152;8.182;2022-08-21T16:10:15;2.40;;;1.15;;
31770;SDS011;18343;50.152;8.182;2022-08-21T16:12:46;5.07;;;1.60;;
31770;SDS011;18343;50.152;8.182;2022-08-21T16:15:20;3.33;;;1.50;;
31770;SDS011;18343;50.152;8.182;2022-08-21T16:17:49;5.18;;;1.70;;
31770;SDS011;18343;50.152;8.182;2022-08-21T16:20:20;4.22;;;2.28;;